createdAt,value
2023-08-14T00:03:52.822Z,101544.69
2023-08-14T00:07:54.486Z,101547.13
2023-08-14T00:11:56.056Z,101543.56
2023-08-14T00:15:57.566Z,101550.44
2023-08-14T00:19:59.160Z,101561.06
2023-08-14T00:24:00.620Z,101558.81
2023-08-14T00:28:02.102Z,101563.34
2023-08-14T00:32:03.814Z,101554.78
2023-08-14T00:36:06.990Z,101564.25
2023-08-14T00:40:10.867Z,101560.22
2023-08-14T00:44:12.339Z,101554.06
2023-08-14T00:48:15.688Z,101554.25
2023-08-14T00:52:17.648Z,101555.22
2023-08-14T00:56:24.490Z,101548.94
2023-08-14T01:00:29.282Z,101547.69
2023-08-14T01:04:30.869Z,101551.75
2023-08-14T01:08:33.541Z,101550.72
2023-08-14T01:12:46.884Z,101539.88
2023-08-14T01:16:55.727Z,101542.44
2023-08-14T01:21:36.609Z,101543.19
2023-08-14T01:25:38.989Z,101553.91
2023-08-14T01:29:40.532Z,101549.88
2023-08-14T01:33:42.190Z,101549.50
2023-08-14T01:37:52.942Z,101545.91
2023-08-14T01:42:15.908Z,101546.91
2023-08-14T01:46:18.457Z,101546.50
2023-08-14T01:50:22.207Z,101542.41
2023-08-14T01:54:23.861Z,101543.69
2023-08-14T01:58:25.481Z,101545.47
2023-08-14T02:02:27.444Z,101542.59
2023-08-14T02:06:29.020Z,101544.72
2023-08-14T02:10:30.525Z,101528.19
2023-08-14T02:14:32.202Z,101528.81
2023-08-14T02:18:33.714Z,101521.47
2023-08-14T02:22:35.182Z,101531.03
2023-08-14T02:26:36.751Z,101533.53
2023-08-14T02:30:39.300Z,101530.75
2023-08-14T02:34:53.746Z,101530.16
2023-08-14T02:38:55.583Z,101522.97
2023-08-14T02:43:02.158Z,101525.66
2023-08-14T02:47:05.241Z,101518.63
2023-08-14T02:51:06.934Z,101524.69
2023-08-14T02:55:08.732Z,101527.50
2023-08-14T02:59:10.339Z,101528.91
2023-08-14T03:03:11.915Z,101516.69
2023-08-14T03:07:13.506Z,101519.84
2023-08-14T03:11:14.998Z,101524.13
2023-08-14T03:15:16.448Z,101516.25
2023-08-14T03:19:17.995Z,101525.75
2023-08-14T03:23:19.481Z,101525.94
2023-08-14T03:27:20.972Z,101526.88
2023-08-14T03:31:22.603Z,101520.66
2023-08-14T03:35:24.393Z,101517.31
2023-08-14T03:39:26.772Z,101512.16
2023-08-14T03:43:28.779Z,101512.22
2023-08-14T03:47:30.456Z,101515.75
2023-08-14T03:51:32.562Z,101505.16
2023-08-14T03:55:34.891Z,101510.84
2023-08-14T03:59:36.464Z,101511.47
2023-08-14T04:03:38.010Z,101516.41
2023-08-14T04:07:40.057Z,101516.66
2023-08-14T04:11:41.862Z,101512.63
2023-08-14T04:15:43.343Z,101504.88
2023-08-14T04:19:44.900Z,101512.72
2023-08-14T04:23:46.372Z,101507.09
2023-08-14T04:27:47.965Z,101509.97
2023-08-14T04:31:49.611Z,101503.75
2023-08-14T04:35:52.660Z,101514.59
2023-08-14T04:39:55.012Z,101505.59
2023-08-14T04:43:56.743Z,101498.69
2023-08-14T04:47:59.053Z,101500.69
2023-08-14T04:52:01.333Z,101502.94
2023-08-14T04:56:03.967Z,101501.44
2023-08-14T05:00:06.699Z,101499.38
2023-08-14T05:04:09.700Z,101488.22
2023-08-14T05:08:11.258Z,101489.91
2023-08-14T05:12:12.819Z,101497.31
2023-08-14T05:16:14.688Z,101486.91
2023-08-14T05:20:16.558Z,101491.38
2023-08-14T05:24:18.176Z,101498.75
2023-08-14T05:28:19.764Z,101485.66
2023-08-14T05:32:21.272Z,101502.63
2023-08-14T05:36:22.808Z,101497.78
2023-08-14T05:40:25.182Z,101494.56
2023-08-14T05:44:26.663Z,101492.63
2023-08-14T05:48:28.234Z,101493.22
2023-08-14T05:52:29.710Z,101497.19
2023-08-14T05:56:31.793Z,101499.53
2023-08-14T06:00:34.500Z,101502.97
2023-08-14T06:04:38.024Z,101501.16
2023-08-14T06:08:39.655Z,101503.97
2023-08-14T06:12:41.940Z,101500.25
2023-08-14T06:16:43.486Z,101496.53
2023-08-14T06:20:44.988Z,101495.22
2023-08-14T06:24:47.309Z,101498.91
2023-08-14T06:28:48.809Z,101499.69
2023-08-14T06:32:50.707Z,101507.81
2023-08-14T06:36:52.291Z,101493.22
2023-08-14T06:40:53.812Z,101502.22
2023-08-14T06:44:55.428Z,101510.84
2023-08-14T06:48:56.940Z,101508.53
2023-08-14T06:52:58.435Z,101502.59
2023-08-14T06:56:59.972Z,101497.97
2023-08-14T07:01:01.720Z,101501.00
2023-08-14T07:05:03.393Z,101506.22
2023-08-14T07:09:05.066Z,101515.63
2023-08-14T07:13:07.858Z,101511.75
2023-08-14T07:17:09.510Z,101503.66
2023-08-14T07:21:11.144Z,101508.56
2023-08-14T07:25:14.322Z,101506.75
2023-08-14T07:29:19.658Z,101503.88
2023-08-14T07:33:21.482Z,101506.97
2023-08-14T07:37:23.006Z,101509.34
2023-08-14T07:41:24.516Z,101521.94
2023-08-14T07:45:26.121Z,101523.53
2023-08-14T07:49:27.628Z,101518.47
2023-08-14T07:53:29.135Z,101528.88
2023-08-14T07:57:30.817Z,101531.63
2023-08-14T08:01:32.849Z,101536.34
2023-08-14T08:05:34.431Z,101536.09
2023-08-14T08:09:35.981Z,101534.13
2023-08-14T08:13:38.348Z,101540.47
2023-08-14T08:17:40.159Z,101536.59
2023-08-14T08:21:42.414Z,101542.22
2023-08-14T08:25:43.925Z,101536.72
2023-08-14T08:29:46.398Z,101542.34
2023-08-14T08:33:48.018Z,101540.97
2023-08-14T08:37:49.482Z,101540.97
2023-08-14T08:41:52.424Z,101531.28
2023-08-14T08:45:57.958Z,101522.34
2023-08-14T08:50:00.771Z,101524.88
2023-08-14T08:54:02.833Z,101527.84
2023-08-14T08:58:04.939Z,101519.19
2023-08-14T09:02:08.670Z,101526.69
2023-08-14T09:06:10.140Z,101525.19
2023-08-14T09:10:11.981Z,101526.34
2023-08-14T09:14:15.757Z,101520.09
2023-08-14T09:18:17.561Z,101517.72
2023-08-14T09:22:19.169Z,101514.81
2023-08-14T09:26:20.787Z,101510.28
2023-08-14T09:30:25.464Z,101511.47
2023-08-14T09:34:27.083Z,101501.44
2023-08-14T09:38:28.598Z,101510.53
2023-08-14T09:42:32.459Z,101508.44
2023-08-14T09:46:34.115Z,101510.75
2023-08-14T09:50:36.894Z,101512.41
2023-08-14T09:54:38.380Z,101507.44
2023-08-14T10:02:45.837Z,101515.97
2023-08-14T10:06:47.858Z,101513.97
2023-08-14T10:11:05.349Z,101502.31
2023-08-14T10:15:11.373Z,101521.66
2023-08-14T10:19:16.922Z,101511.56
2023-08-14T10:23:19.497Z,101518.22
2023-08-14T10:27:21.500Z,101504.78
2023-08-14T10:31:23.189Z,101507.44
2023-08-14T10:35:26.647Z,101505.34
2023-08-14T10:39:36.425Z,101504.28
2023-08-14T10:43:38.312Z,101506.81
2023-08-14T10:47:39.946Z,101505.94
2023-08-14T10:51:43.218Z,101497.16
2023-08-14T10:55:49.004Z,101506.63
2023-08-14T10:59:58.597Z,101505.19
2023-08-14T11:04:05.800Z,101510.09
2023-08-14T11:08:09.373Z,101506.28
2023-08-14T11:12:11.140Z,101504.06
2023-08-14T11:16:12.666Z,101503.28
2023-08-14T11:20:15.024Z,101502.41
2023-08-14T11:24:16.626Z,101507.78
2023-08-14T11:28:18.146Z,101487.94
2023-08-14T11:32:20.500Z,101486.81
2023-08-14T11:36:24.054Z,101483.19
2023-08-14T11:40:26.729Z,101485.09
2023-08-14T11:44:28.267Z,101488.59
2023-08-14T11:48:29.863Z,101479.56
2023-08-14T11:52:31.963Z,101462.72
2023-08-14T11:56:33.925Z,101478.97
2023-08-14T12:00:35.423Z,101468.69
2023-08-14T12:04:41.589Z,101466.31
2023-08-14T12:08:43.686Z,101469.16
2023-08-14T12:12:51.772Z,101466.38
2023-08-14T12:16:58.905Z,101477.47
2023-08-14T12:21:00.591Z,101475.00
2023-08-14T12:25:05.744Z,101486.84
2023-08-14T12:29:08.730Z,101475.03
2023-08-14T12:33:10.636Z,101472.13
2023-08-14T12:37:15.338Z,101494.06
2023-08-14T12:41:16.988Z,101488.00
2023-08-14T12:45:18.480Z,101486.19
2023-08-14T12:49:20.523Z,101480.25
2023-08-14T12:53:22.014Z,101482.31
2023-08-14T12:57:23.922Z,101489.38
2023-08-14T13:01:27.746Z,101484.66
2023-08-14T13:05:31.565Z,101484.63
2023-08-14T13:09:33.419Z,101478.84
2023-08-14T13:13:34.899Z,101480.75
2023-08-14T13:17:36.614Z,101481.66
2023-08-14T13:21:38.148Z,101483.69
2023-08-14T13:25:42.766Z,101472.47
2023-08-14T13:29:44.663Z,101473.66
2023-08-14T13:33:46.146Z,101469.75
2023-08-14T13:37:47.626Z,101475.91
2023-08-14T13:41:49.187Z,101464.75
2023-08-14T13:45:50.732Z,101460.66
2023-08-14T13:49:52.273Z,101456.00
2023-08-14T13:53:53.749Z,101454.44
2023-08-14T13:57:56.888Z,101429.59
2023-08-14T14:01:59.039Z,101439.31
2023-08-14T14:06:00.890Z,101433.97
2023-08-14T14:10:02.559Z,101435.84
2023-08-14T14:14:04.254Z,101424.81
2023-08-14T14:18:05.867Z,101435.00
2023-08-14T14:22:08.448Z,101430.16
2023-08-14T14:26:09.969Z,101428.75
2023-08-14T14:30:12.176Z,101430.59
2023-08-14T14:34:15.075Z,101426.59
2023-08-14T14:38:16.669Z,101417.50
2023-08-14T14:42:19.970Z,101430.72
2023-08-14T14:46:21.472Z,101423.97
2023-08-14T14:50:29.870Z,101423.25
2023-08-14T14:54:32.042Z,101417.75
2023-08-14T14:58:33.660Z,101404.38
2023-08-14T15:02:35.456Z,101397.47
2023-08-14T15:06:37.352Z,101394.09
2023-08-14T15:10:38.925Z,101393.88
2023-08-14T15:14:40.537Z,101394.50
2023-08-14T15:18:42.073Z,101402.16
2023-08-14T15:22:46.365Z,101394.59
2023-08-14T15:26:49.798Z,101391.31
2023-08-14T15:30:52.679Z,101399.53
2023-08-14T15:34:54.161Z,101384.03
2023-08-14T15:38:55.953Z,101384.56
2023-08-14T15:42:59.366Z,101381.19
2023-08-14T15:47:00.893Z,101376.56
2023-08-14T15:51:02.461Z,101391.84
2023-08-14T15:55:04.473Z,101379.66
2023-08-14T15:59:06.069Z,101392.31
2023-08-14T16:03:07.968Z,101398.75
2023-08-14T16:07:09.504Z,101381.56
2023-08-14T16:11:11.617Z,101388.84
2023-08-14T16:15:13.145Z,101394.88
2023-08-14T16:19:14.875Z,101390.78
2023-08-14T16:23:16.332Z,101391.97
2023-08-14T16:27:17.995Z,101374.22
2023-08-14T16:31:19.836Z,101369.41
2023-08-14T16:35:21.490Z,101364.03
2023-08-14T16:39:23.400Z,101368.16
2023-08-14T16:43:24.930Z,101360.56
2023-08-14T16:47:26.529Z,101359.03
2023-08-14T16:51:29.124Z,101364.38
2023-08-14T16:55:31.293Z,101360.56
2023-08-14T16:59:32.842Z,101369.03
2023-08-14T17:03:34.558Z,101373.34
2023-08-14T17:07:36.057Z,101369.06
2023-08-14T17:11:37.573Z,101360.47
2023-08-14T17:15:42.819Z,101350.16
2023-08-14T17:19:44.681Z,101362.91
2023-08-14T17:23:46.221Z,101363.38
2023-08-14T17:27:47.723Z,101350.13
2023-08-14T17:31:50.638Z,101358.81
2023-08-14T17:35:52.835Z,101346.88
2023-08-14T17:39:55.536Z,101352.97
2023-08-14T17:43:57.104Z,101353.31
2023-08-14T17:47:58.620Z,101343.94
2023-08-14T17:52:00.185Z,101355.06
2023-08-14T17:56:01.782Z,101351.44
2023-08-14T18:00:03.680Z,101338.66
2023-08-14T18:04:11.453Z,101341.56
2023-08-14T18:08:12.951Z,101338.47
2023-08-14T18:12:14.512Z,101357.34
2023-08-14T18:16:16.036Z,101352.47
2023-08-14T18:20:17.711Z,101352.16
2023-08-14T18:24:20.004Z,101338.44
2023-08-14T18:28:22.356Z,101344.00
2023-08-14T18:32:23.815Z,101339.47
2023-08-14T18:36:25.384Z,101336.72
2023-08-14T18:40:27.441Z,101330.41
2023-08-14T18:44:29.355Z,101336.50
2023-08-14T18:48:31.241Z,101342.63
2023-08-14T18:52:32.734Z,101336.72
2023-08-14T18:56:34.230Z,101336.56
2023-08-14T19:00:36.395Z,101346.84
2023-08-14T19:04:42.939Z,101343.28
2023-08-14T19:08:45.183Z,101349.78
2023-08-14T19:12:46.681Z,101362.81
2023-08-14T19:16:48.162Z,101360.56
2023-08-14T19:20:49.975Z,101364.41
2023-08-14T19:24:51.434Z,101360.38
2023-08-14T19:28:53.273Z,101367.03
2023-08-14T19:32:54.754Z,101359.75
2023-08-14T19:36:56.279Z,101353.13
2023-08-14T19:41:01.697Z,101347.59
2023-08-14T19:45:04.565Z,101357.41
2023-08-14T19:49:06.090Z,101354.38
2023-08-14T19:53:07.596Z,101351.84
2023-08-14T19:57:09.064Z,101358.69
2023-08-14T20:01:12.153Z,101352.50
2023-08-14T20:05:13.817Z,101346.41
2023-08-14T20:09:15.379Z,101339.75
2023-08-14T20:13:17.073Z,101333.03
2023-08-14T20:17:18.977Z,101335.78
2023-08-14T20:21:20.745Z,101345.44
2023-08-14T20:25:22.261Z,101338.88
2023-08-14T20:29:23.777Z,101327.56
2023-08-14T20:33:25.324Z,101328.41
2023-08-14T20:37:26.917Z,101320.44
2023-08-14T20:41:28.529Z,101319.91
2023-08-14T20:45:34.999Z,101324.69
2023-08-14T20:49:36.549Z,101316.09
2023-08-14T20:53:38.591Z,101314.06
2023-08-14T20:57:40.094Z,101315.38
2023-08-14T21:01:41.740Z,101316.00
2023-08-14T21:05:50.888Z,101312.66
2023-08-14T21:09:52.394Z,101307.31
2023-08-14T21:13:53.888Z,101314.88
2023-08-14T21:17:59.438Z,101319.44
2023-08-14T21:22:01.016Z,101311.88
2023-08-14T21:26:02.521Z,101302.06
2023-08-14T21:30:04.454Z,101296.97
2023-08-14T21:34:05.963Z,101289.09
2023-08-14T21:38:07.493Z,101288.09
2023-08-14T21:42:08.991Z,101289.88
2023-08-14T21:46:10.611Z,101291.19
2023-08-14T21:50:12.078Z,101285.09
2023-08-14T21:54:18.588Z,101278.78
2023-08-14T21:58:20.149Z,101272.44
2023-08-14T22:02:21.717Z,101276.13
2023-08-14T22:06:23.295Z,101276.81
2023-08-14T22:10:24.826Z,101270.03
2023-08-14T22:14:26.357Z,101286.94
2023-08-14T22:18:27.851Z,101291.41
2023-08-14T22:22:29.345Z,101284.53
2023-08-14T22:26:30.928Z,101282.22
2023-08-14T22:30:32.584Z,101269.78
2023-08-14T22:34:34.203Z,101268.84
2023-08-14T22:38:35.743Z,101276.06
2023-08-14T22:42:37.195Z,101272.34
2023-08-14T22:46:38.669Z,101265.63
2023-08-14T22:50:40.162Z,101263.25
2023-08-14T22:54:41.677Z,101265.13
2023-08-14T22:58:43.792Z,101264.66
2023-08-14T23:02:45.270Z,101257.78
2023-08-14T23:06:46.884Z,101250.84
2023-08-14T23:10:48.364Z,101254.34
2023-08-14T23:14:49.976Z,101254.84
2023-08-14T23:18:51.457Z,101263.03
2023-08-14T23:22:52.964Z,101261.63
2023-08-14T23:26:54.549Z,101265.31
2023-08-14T23:31:01.454Z,101247.53
2023-08-14T23:35:03.186Z,101247.53
2023-08-14T23:39:05.676Z,101245.94
2023-08-14T23:43:07.133Z,101245.22
2023-08-14T23:47:08.700Z,101232.81
2023-08-14T23:51:10.213Z,101232.72
2023-08-14T23:55:11.742Z,101240.66
2023-08-14T23:59:13.909Z,101234.66
